CDT,Max TemperatureF,Mean TemperatureF,Min TemperatureF,Max Dew PointF,MeanDew PointF,Min DewpointF,Max Humidity, Mean Humidity, Min Humidity, Max Sea Level PressureIn, Mean Sea Level PressureIn, Min Sea Level PressureIn, Max VisibilityMiles, Mean VisibilityMiles, Min VisibilityMiles, Max Wind SpeedMPH, Mean Wind SpeedMPH, Max Gust SpeedMPH,PrecipitationIn, CloudCover, Events, WindDirDegrees
2013-9-1,92,81,69,74,69,62,100,69,38,29.90,29.82,29.77,10,7,0,20,6,25,T,1,Fog,319
2013-9-2,86,74,61,61,57,53,87,62,37,30.00,29.96,29.90,10,10,10,14,7,19,0.00,0,,360
2013-9-3,86,70,53,57,53,49,86,58,29,30.10,30.04,30.00,10,10,10,12,5,16,0.00,0,,29
2013-9-4,88,73,57,59,54,50,80,55,29,30.17,30.11,30.06,10,10,10,9,3,12,0.00,0,,98
2013-9-5,89,75,60,63,59,56,93,64,34,30.20,30.15,30.12,10,10,10,12,3,16,0.00,0,,140
2013-9-6,91,77,63,64,58,50,93,60,27,30.16,30.10,30.02,10,10,10,13,7,16,0.00,0,,157
2013-9-7,96,79,62,66,62,59,93,62,31,30.04,29.98,29.90,10,10,8,14,8,19,0.00,0,,192
2013-9-8,88,80,71,73,69,66,93,76,59,30.01,29.92,29.86,10,9,2,17,8,22,0.54,3,Rain-Thunderstorm,162
2013-9-9,97,85,73,71,66,59,87,59,30,29.96,29.92,29.88,10,10,7,18,8,23,0.00,0,,203
2013-9-10,96,83,70,67,64,60,84,57,30,30.08,30.03,29.97,10,10,10,18,8,24,0.00,0,,204
2013-9-11,96,80,64,67,64,61,87,59,31,30.13,30.08,30.03,10,9,3,16,5,19,0.00,0,,229
2013-9-12,88,77,65,69,63,46,90,67,43,30.11,30.06,30.01,10,10,10,16,7,20,T,2,Rain,358
2013-9-13,78,65,52,51,48,44,83,58,33,30.16,30.12,30.08,10,10,10,16,8,21,0.00,0,,39
2013-9-14,79,63,47,49,44,42,86,57,28,30.16,30.09,30.01,10,10,10,13,6,19,0.00,0,,120
2013-9-15,84,70,56,68,58,48,93,67,40,30.13,30.04,30.00,10,9,2,18,9,23,0.32,5,Rain-Thunderstorm,288
2013-9-16,69,64,58,61,57,54,93,83,73,30.29,30.21,30.13,10,9,5,15,9,19,0.14,7,Rain,55
2013-9-17,68,64,60,66,61,54,100,89,78,30.23,30.14,30.05,10,6,2,13,7,16,0.33,8,Rain-Thunderstorm,126
2013-9-18,87,77,67,70,67,65,93,74,55,30.05,29.98,29.92,10,8,2,22,11,27,0.18,3,Rain,163
2013-9-19,89,79,68,70,68,66,84,68,52,29.96,29.91,29.81,10,10,8,21,11,27,0.44,3,Rain-Thunderstorm,191
2013-9-20,72,64,55,67,61,51,100,77,53,29.97,29.93,29.88,10,9,2,17,9,22,0.26,5,Rain-Thunderstorm,275
2013-9-21,73,61,48,51,47,44,96,67,38,30.03,29.97,29.93,10,9,6,15,6,19,0.00,0,,335
2013-9-22,75,62,48,51,48,44,86,62,38,30.02,29.96,29.92,10,10,10,12,5,16,0.00,0,,114
2013-9-23,78,65,52,52,50,47,89,61,33,30.00,29.94,29.88,10,10,10,16,9,21,0.00,0,,131
2013-9-24,81,68,55,60,56,50,87,68,48,29.91,29.84,29.78,10,10,10,20,8,24,0.00,2,,160
2013-9-25,76,66,56,64,60,55,100,82,64,29.90,29.85,29.80,10,6,0,10,4,13,0.00,4,Fog,22
2013-9-26,84,71,57,65,61,56,100,76,51,29.98,29.94,29.87,10,7,0,15,8,20,0.00,0,Fog,141
2013-9-27,85,74,63,65,62,60,93,69,44,30.06,30.00,29.95,10,10,7,18,10,23,0.00,1,,141
2013-9-28,78,68,58,70,63,57,90,77,64,30.07,29.97,29.92,10,9,2,20,11,26,0.21,7,Rain,239
2013-9-29,75,63,51,56,52,46,100,69,38,30.11,30.06,29.98,10,6,0,12,5,15,0.00,2,Fog,10
2013-9-30,75,63,50,62,56,47,100,82,64,29.98,29.93,29.88,10,8,0,13,7,17,0.00,4,Fog,145